createdAt,value
2018-06-23T00:00:47.277Z,95818.12
2018-06-23T00:03:16.605Z,95814.03
2018-06-23T00:05:45.976Z,95807.27
2018-06-23T00:08:15.397Z,95811.75
2018-06-23T00:10:44.834Z,95820.28
2018-06-23T00:13:14.223Z,95813.41
2018-06-23T00:15:43.645Z,95813.91
2018-06-23T00:18:13.027Z,95819.67
2018-06-23T00:20:42.435Z,95822.49
2018-06-23T00:23:11.847Z,95798.23
2018-06-23T00:25:46.439Z,95822.88
2018-06-23T00:28:16.147Z,95811.95
2018-06-23T00:30:45.489Z,95815.83
2018-06-23T00:33:14.917Z,95805.27
2018-06-23T00:35:44.340Z,95809.80
2018-06-23T00:38:13.753Z,95812.48
2018-06-23T00:40:43.046Z,95805.45
2018-06-23T00:43:12.321Z,95798.06
2018-06-23T00:45:41.597Z,95792.22
2018-06-23T00:48:11.020Z,95790.12
2018-06-23T00:50:40.394Z,95788.09
2018-06-23T00:53:09.705Z,95800.33
2018-06-23T00:55:38.969Z,95801.98
2018-06-23T00:58:08.302Z,95799.33
2018-06-23T01:00:37.625Z,95802.22
2018-06-23T01:03:06.953Z,95800.92
2018-06-23T01:05:36.249Z,95799.21
2018-06-23T01:08:05.610Z,95793.63
2018-06-23T01:10:34.888Z,95787.34
2018-06-23T01:13:04.262Z,95784.93
2018-06-23T01:15:33.565Z,95789.36
2018-06-23T01:18:02.997Z,95790.64
2018-06-23T01:20:32.322Z,95786.83
2018-06-23T01:23:01.660Z,95784.94
2018-06-23T01:25:30.990Z,95800.41
2018-06-23T01:28:00.275Z,95798.55
2018-06-23T01:30:29.691Z,95797.47
2018-06-23T01:32:58.995Z,95798.92
2018-06-23T01:35:28.296Z,95798.27
2018-06-23T01:37:57.604Z,95789.31
2018-06-23T01:40:26.900Z,95785.84
2018-06-23T01:42:56.225Z,95789.48
2018-06-23T01:45:25.590Z,95786.90
2018-06-23T01:47:54.881Z,95795.02
2018-06-23T01:50:24.197Z,95786.29
2018-06-23T01:52:53.465Z,95790.29
2018-06-23T01:55:22.776Z,95792.49
2018-06-23T01:57:52.158Z,95782.53
2018-06-23T02:00:21.569Z,95785.63
2018-06-23T02:02:50.880Z,95769.94
2018-06-23T02:05:21.226Z,95782.88
2018-06-23T02:07:50.525Z,95765.55
2018-06-23T02:10:19.909Z,95772.69
2018-06-23T02:12:49.213Z,95772.44
2018-06-23T02:15:18.518Z,95777.17
2018-06-23T02:17:52.979Z,95773.43
2018-06-23T02:20:27.594Z,95773.97
2018-06-23T02:23:02.050Z,95773.86
2018-06-23T02:25:36.562Z,95777.60
2018-06-23T02:28:11.167Z,95779.88
2018-06-23T02:31:45.809Z,95780.52
2018-06-23T02:35:17.597Z,95792.97
2018-06-23T02:37:46.894Z,95785.23
2018-06-23T02:40:16.173Z,95787.72
2018-06-23T02:42:46.540Z,95784.14
2018-06-23T02:45:15.801Z,95780.48
2018-06-23T02:47:45.126Z,95780.84
2018-06-23T02:50:14.416Z,95777.44
2018-06-23T02:52:43.798Z,95774.15
2018-06-23T02:55:13.069Z,95773.91
2018-06-23T02:57:42.446Z,95772.09
2018-06-23T03:03:07.144Z,95766.40
2018-06-23T03:05:36.446Z,95779.98
2018-06-23T03:08:05.906Z,95775.52
2018-06-23T03:10:35.257Z,95777.67
2018-06-23T03:13:04.616Z,95774.83
2018-06-23T03:15:33.943Z,95774.63
2018-06-23T03:18:03.225Z,95765.77
2018-06-23T03:20:32.876Z,95770.64
2018-06-23T03:23:02.225Z,95772.22
2018-06-23T03:25:31.513Z,95776.62
2018-06-23T03:28:00.881Z,95776.38
2018-06-23T03:30:30.314Z,95768.66
2018-06-23T03:32:59.594Z,95779.70
2018-06-23T03:35:28.904Z,95781.78
2018-06-23T03:37:58.199Z,95782.80
2018-06-23T03:40:27.547Z,95777.70
2018-06-23T03:42:56.816Z,95766.52
2018-06-23T03:45:26.153Z,95771.48
2018-06-23T03:47:55.425Z,95773.70
2018-06-23T03:50:24.768Z,95778.66
2018-06-23T03:52:54.065Z,95781.57
2018-06-23T03:55:23.384Z,95770.02
2018-06-23T03:57:52.654Z,95771.42
2018-06-23T04:00:21.944Z,95775.73
2018-06-23T04:02:51.226Z,95772.78
2018-06-23T04:05:20.616Z,95772.48
2018-06-23T04:07:50.010Z,95777.25
2018-06-23T04:10:19.366Z,95782.95
2018-06-23T04:12:48.624Z,95782.84
2018-06-23T04:15:17.904Z,95780.80
2018-06-23T04:17:47.197Z,95776.73
2018-06-23T04:20:16.496Z,95779.47
2018-06-23T04:22:45.767Z,95770.40
2018-06-23T04:25:15.073Z,95775.84
2018-06-23T04:27:44.429Z,95778.20
2018-06-23T04:30:13.697Z,95771.70
2018-06-23T04:32:43.025Z,95782.21
2018-06-23T04:35:12.314Z,95780.01
2018-06-23T04:37:41.645Z,95780.97
2018-06-23T04:40:10.972Z,95791.50
2018-06-23T04:42:40.333Z,95789.63
2018-06-23T04:45:09.725Z,95790.44
2018-06-23T04:47:39.049Z,95788.01
2018-06-23T04:50:08.618Z,95788.27
2018-06-23T04:52:38.030Z,95791.13
2018-06-23T04:55:07.386Z,95792.34
2018-06-23T04:57:36.717Z,95794.39
2018-06-23T05:00:06.110Z,95794.25
2018-06-23T05:02:35.617Z,95793.27
2018-06-23T05:05:04.933Z,95789.94
2018-06-23T05:07:34.249Z,95795.62
2018-06-23T05:10:03.567Z,95786.42
2018-06-23T05:12:32.845Z,95790.96
2018-06-23T05:15:02.205Z,95790.27
2018-06-23T05:17:31.597Z,95780.45
2018-06-23T05:20:00.925Z,95784.73
2018-06-23T05:22:30.264Z,95781.67
2018-06-23T05:24:59.630Z,95790.16
2018-06-23T05:27:28.947Z,95784.48
2018-06-23T05:29:58.226Z,95783.62
2018-06-23T05:32:27.513Z,95790.47
2018-06-23T05:34:57.068Z,95792.53
2018-06-23T05:37:26.407Z,95784.86
2018-06-23T05:39:55.712Z,95789.80
2018-06-23T05:42:25.123Z,95784.69
2018-06-23T05:44:54.527Z,95777.44
2018-06-23T05:47:24.169Z,95778.95
2018-06-23T05:49:53.566Z,95774.83
2018-06-23T05:52:22.993Z,95777.73
2018-06-23T05:54:52.455Z,95772.80
2018-06-23T05:57:21.757Z,95775.95
2018-06-23T05:59:51.154Z,95769.81
2018-06-23T06:02:20.481Z,95773.69
2018-06-23T06:04:49.851Z,95774.78
2018-06-23T06:07:19.169Z,95773.95
2018-06-23T06:09:48.454Z,95766.20
2018-06-23T06:12:17.838Z,95774.98
2018-06-23T06:14:47.213Z,95765.42
2018-06-23T06:17:37.858Z,95767.78
2018-06-23T06:20:11.901Z,95773.02
2018-06-23T06:22:43.407Z,95771.68
2018-06-23T06:25:13.430Z,95777.19
2018-06-23T06:27:42.873Z,95780.78
2018-06-23T06:30:12.775Z,95789.77
2018-06-23T06:32:42.151Z,95788.85
2018-06-23T06:35:11.542Z,95794.31
2018-06-23T06:37:40.877Z,95790.80
2018-06-23T06:40:10.225Z,95790.33
2018-06-23T06:42:39.585Z,95794.01
2018-06-23T06:45:08.961Z,95794.48
2018-06-23T06:47:38.317Z,95795.19
2018-06-23T06:50:07.649Z,95795.38
2018-06-23T06:52:37.045Z,95796.13
2018-06-23T06:55:06.459Z,95792.35
2018-06-23T06:57:35.894Z,95794.99
2018-06-23T07:00:05.744Z,95791.55
2018-06-23T07:02:35.236Z,95793.66
2018-06-23T07:05:04.812Z,95791.89
2018-06-23T07:07:34.112Z,95785.47
2018-06-23T07:10:03.509Z,95781.13
2018-06-23T07:12:32.853Z,95777.98
2018-06-23T07:15:02.229Z,95785.94
2018-06-23T07:17:31.601Z,95787.59
2018-06-23T07:20:00.905Z,95789.61
2018-06-23T07:22:30.269Z,95786.78
2018-06-23T07:24:59.554Z,95785.38
2018-06-23T07:27:28.880Z,95794.63
2018-06-23T07:29:58.160Z,95789.34
2018-06-23T07:32:27.529Z,95790.88
2018-06-23T07:34:56.995Z,95796.72
2018-06-23T07:37:26.197Z,95795.86
2018-06-23T07:39:55.545Z,95798.12
2018-06-23T07:42:24.945Z,95788.80
2018-06-23T07:44:54.293Z,95788.91
2018-06-23T07:47:23.734Z,95784.61
2018-06-23T07:49:53.023Z,95784.83
2018-06-23T07:52:22.324Z,95778.73
2018-06-23T07:54:51.888Z,95772.67
2018-06-23T07:57:21.410Z,95778.67
2018-06-23T07:59:50.862Z,95788.70
2018-06-23T08:02:20.258Z,95787.59
2018-06-23T08:04:49.621Z,95791.20
2018-06-23T08:07:19.077Z,95796.22
2018-06-23T08:09:48.460Z,95803.86
2018-06-23T08:12:18.050Z,95796.91
2018-06-23T08:14:47.544Z,95794.77
2018-06-23T08:17:17.082Z,95799.24
2018-06-23T08:19:46.558Z,95800.31
2018-06-23T08:22:15.972Z,95795.84
2018-06-23T08:24:45.407Z,95794.40
2018-06-23T08:27:14.925Z,95797.29
2018-06-23T08:29:44.362Z,95798.84
2018-06-23T08:32:13.737Z,95792.38
2018-06-23T08:34:43.309Z,95811.22
2018-06-23T08:37:12.922Z,95804.51
2018-06-23T08:39:42.274Z,95804.85
2018-06-23T08:42:11.857Z,95803.38
2018-06-23T08:44:41.202Z,95797.21
2018-06-23T08:47:10.631Z,95806.41
2018-06-23T08:49:40.013Z,95806.67
2018-06-23T08:52:09.513Z,95804.59
2018-06-23T08:54:38.957Z,95802.45
2018-06-23T08:57:08.327Z,95802.64
2018-06-23T08:59:37.858Z,95799.92
2018-06-23T09:02:07.450Z,95808.47
2018-06-23T09:04:36.814Z,95803.74
2018-06-23T09:07:06.148Z,95794.16
2018-06-23T09:09:35.526Z,95800.29
2018-06-23T09:12:05.059Z,95806.06
2018-06-23T09:14:34.439Z,95808.16
2018-06-23T09:17:03.930Z,95802.58
2018-06-23T09:19:33.363Z,95798.84
2018-06-23T09:22:02.896Z,95810.31
2018-06-23T09:24:32.274Z,95809.83
2018-06-23T09:27:01.823Z,95810.78
2018-06-23T09:29:31.204Z,95806.71
2018-06-23T09:32:00.558Z,95814.26
2018-06-23T09:34:30.025Z,95811.06
2018-06-23T09:36:59.331Z,95815.70
2018-06-23T09:39:28.850Z,95829.19
2018-06-23T09:41:58.248Z,95826.44
2018-06-23T09:44:27.637Z,95828.53
2018-06-23T09:46:56.991Z,95810.14
2018-06-23T09:49:26.436Z,95808.67
2018-06-23T09:51:55.813Z,95800.22
2018-06-23T09:54:25.204Z,95794.67
2018-06-23T09:56:54.752Z,95787.89
2018-06-23T09:59:24.085Z,95776.50
2018-06-23T10:01:53.419Z,95772.23
2018-06-23T10:04:22.857Z,95780.14
2018-06-23T10:06:52.264Z,95785.09
2018-06-23T10:09:21.718Z,95787.34
2018-06-23T10:11:51.103Z,95787.56
2018-06-23T10:14:20.469Z,95794.92
2018-06-23T10:16:49.769Z,95797.05
2018-06-23T10:19:19.143Z,95798.22
2018-06-23T10:21:48.784Z,95794.23
2018-06-23T10:24:18.212Z,95800.94
2018-06-23T10:26:47.686Z,95801.87
2018-06-23T10:29:16.980Z,95794.55
2018-06-23T10:31:46.365Z,95790.86
2018-06-23T10:34:15.772Z,95786.62
2018-06-23T10:36:45.737Z,95788.30
2018-06-23T10:39:15.053Z,95800.16
2018-06-23T10:41:44.774Z,95804.52
2018-06-23T10:44:14.129Z,95806.21
2018-06-23T10:46:44.569Z,95797.11
2018-06-23T10:49:14.082Z,95795.95
2018-06-23T10:51:43.456Z,95797.02
2018-06-23T10:54:13.421Z,95797.24
2018-06-23T10:56:43.156Z,95781.69
2018-06-23T10:59:14.455Z,95785.30
2018-06-23T11:01:45.487Z,95781.67
2018-06-23T11:04:17.699Z,95783.36
2018-06-23T11:06:47.069Z,95792.05
2018-06-23T11:09:16.556Z,95801.38
2018-06-23T11:11:46.002Z,95784.64
2018-06-23T11:14:16.600Z,95790.64
2018-06-23T11:16:45.973Z,95793.62
2018-06-23T11:19:15.386Z,95777.42
2018-06-23T11:21:44.837Z,95786.30
2018-06-23T11:24:14.268Z,95786.00
2018-06-23T11:26:43.645Z,95798.34
2018-06-23T11:29:13.013Z,95789.44
2018-06-23T11:31:42.377Z,95793.33
2018-06-23T11:34:11.723Z,95788.19
2018-06-23T11:36:41.046Z,95794.50
2018-06-23T11:39:11.445Z,95790.39
2018-06-23T11:41:40.815Z,95787.36
2018-06-23T11:44:10.132Z,95773.66
2018-06-23T11:46:39.572Z,95774.84
2018-06-23T11:49:08.966Z,95787.86
2018-06-23T11:51:38.407Z,95784.90
2018-06-23T11:54:07.722Z,95789.43
2018-06-23T11:56:37.079Z,95774.95
2018-06-23T11:59:06.518Z,95781.44
2018-06-23T12:01:36.143Z,95772.44
2018-06-23T12:04:05.521Z,95779.10
2018-06-23T12:06:34.905Z,95772.53
2018-06-23T12:09:06.136Z,95784.98
2018-06-23T12:11:35.429Z,95783.80
2018-06-23T12:14:04.753Z,95782.41
2018-06-23T12:16:34.120Z,95780.31
2018-06-23T12:19:03.598Z,95789.69
2018-06-23T12:21:32.996Z,95800.62
2018-06-23T12:24:02.427Z,95804.00
2018-06-23T12:26:31.732Z,95791.74
2018-06-23T12:29:01.113Z,95796.55
2018-06-23T12:31:30.464Z,95791.58
2018-06-23T12:34:00.592Z,95803.08
2018-06-23T12:36:29.994Z,95784.02
2018-06-23T12:38:59.328Z,95778.66
2018-06-23T12:41:28.742Z,95778.77
2018-06-23T12:43:58.115Z,95776.80
2018-06-23T12:46:27.443Z,95775.89
2018-06-23T12:48:56.769Z,95766.89
2018-06-23T12:51:26.082Z,95770.91
2018-06-23T12:53:55.404Z,95760.37
2018-06-23T12:56:24.791Z,95763.61
2018-06-23T12:58:54.124Z,95758.53
2018-06-23T13:01:24.437Z,95759.71
2018-06-23T13:03:53.832Z,95760.42
2018-06-23T13:06:23.323Z,95748.28
2018-06-23T13:08:52.642Z,95744.47
2018-06-23T13:11:21.965Z,95741.92
2018-06-23T13:13:51.333Z,95750.59
2018-06-23T13:16:20.684Z,95749.66
2018-06-23T13:18:50.002Z,95744.63
2018-06-23T13:21:19.305Z,95742.91
2018-06-23T13:23:48.623Z,95741.08
2018-06-23T13:26:17.992Z,95740.55
2018-06-23T13:28:47.295Z,95739.15
2018-06-23T13:31:16.607Z,95740.59
2018-06-23T13:33:45.895Z,95742.41
2018-06-23T13:36:15.218Z,95734.38
2018-06-23T13:38:44.502Z,95737.86
2018-06-23T13:41:13.888Z,95738.01
2018-06-23T13:43:43.231Z,95739.98
2018-06-23T13:46:12.568Z,95730.91
2018-06-23T13:48:41.962Z,95734.61
2018-06-23T13:51:11.379Z,95718.11
2018-06-23T13:53:40.705Z,95718.08
2018-06-23T13:56:10.007Z,95717.24
2018-06-23T13:58:39.365Z,95716.13
2018-06-23T14:01:08.658Z,95717.81
2018-06-23T14:03:38.010Z,95711.72
2018-06-23T14:06:07.372Z,95712.02
2018-06-23T14:08:36.774Z,95712.36
2018-06-23T14:11:06.072Z,95724.13
2018-06-23T14:13:35.408Z,95710.70
2018-06-23T14:16:04.849Z,95701.63
2018-06-23T14:18:34.156Z,95708.27
2018-06-23T14:21:03.952Z,95702.81
2018-06-23T14:23:33.423Z,95703.78
2018-06-23T14:26:03.535Z,95698.20
2018-06-23T14:28:33.089Z,95691.80
2018-06-23T14:31:03.000Z,95692.19
2018-06-23T14:33:33.098Z,95696.98
2018-06-23T14:36:03.019Z,95703.63
2018-06-23T14:38:33.160Z,95713.29
2018-06-23T14:41:03.095Z,95698.48
2018-06-23T14:43:32.719Z,95698.27
2018-06-23T14:46:04.125Z,95702.20
2018-06-23T14:48:33.715Z,95690.67
2018-06-23T14:51:04.445Z,95685.27
2018-06-23T14:53:34.663Z,95694.16
2018-06-23T14:56:04.787Z,95687.20
2018-06-23T14:58:34.395Z,95692.47
2018-06-23T15:01:04.296Z,95682.78
2018-06-23T15:03:34.082Z,95690.27
2018-06-23T15:06:08.083Z,95686.98
2018-06-23T15:08:48.626Z,95679.09
2018-06-23T15:11:30.359Z,95689.23
2018-06-23T15:14:00.031Z,95679.87
2018-06-23T15:16:30.219Z,95684.67
2018-06-23T15:19:00.521Z,95678.55
2018-06-23T15:21:30.194Z,95678.64
2018-06-23T15:23:59.699Z,95676.92
2018-06-23T15:26:29.387Z,95677.70
2018-06-23T15:28:59.072Z,95681.16
2018-06-23T15:31:29.116Z,95677.45
2018-06-23T15:33:59.213Z,95669.84
2018-06-23T15:36:29.192Z,95671.04
2018-06-23T15:38:58.782Z,95672.49
2018-06-23T15:41:28.468Z,95670.69
2018-06-23T15:43:58.374Z,95660.16
2018-06-23T15:46:28.416Z,95674.61
2018-06-23T15:48:58.388Z,95667.84
2018-06-23T15:51:28.378Z,95669.69
2018-06-23T15:53:59.436Z,95670.66
2018-06-23T15:56:28.903Z,95677.35
2018-06-23T15:58:58.405Z,95667.19
2018-06-23T16:01:27.874Z,95676.27
2018-06-23T16:03:57.669Z,95669.75
2018-06-23T16:06:27.180Z,95670.39
2018-06-23T16:08:56.670Z,95671.13
2018-06-23T16:11:26.272Z,95670.46
2018-06-23T16:13:55.812Z,95669.19
2018-06-23T16:16:26.319Z,95669.70
2018-06-23T16:18:55.778Z,95658.90
2018-06-23T16:21:26.124Z,95663.92
2018-06-23T16:23:55.665Z,95668.53
2018-06-23T16:26:26.069Z,95669.93
2018-06-23T16:28:56.041Z,95668.88
2018-06-23T16:31:25.648Z,95672.74
2018-06-23T16:33:55.856Z,95674.17
2018-06-23T16:36:25.487Z,95669.97
2018-06-23T16:38:56.240Z,95661.56
2018-06-23T16:41:25.708Z,95671.58
2018-06-23T16:43:56.118Z,95666.52
2018-06-23T16:46:25.939Z,95665.48
2018-06-23T16:48:55.982Z,95662.45
2018-06-23T16:51:25.777Z,95653.45
2018-06-23T16:53:55.812Z,95651.52
2018-06-23T16:56:25.997Z,95658.52
2018-06-23T16:58:55.525Z,95664.05
2018-06-23T17:01:25.219Z,95665.36
2018-06-23T17:03:55.441Z,95661.70
2018-06-23T17:06:25.703Z,95669.13
2018-06-23T17:08:56.689Z,95667.46
2018-06-23T17:11:26.182Z,95660.88
2018-06-23T17:13:55.551Z,95667.48
2018-06-23T17:16:25.029Z,95666.08
2018-06-23T17:18:54.388Z,95663.40
2018-06-23T17:21:23.918Z,95666.47
2018-06-23T17:23:53.212Z,95664.77
2018-06-23T17:26:22.557Z,95664.32
2018-06-23T17:28:51.857Z,95664.55
2018-06-23T17:31:21.236Z,95660.81
2018-06-23T17:33:50.617Z,95668.66
2018-06-23T17:36:19.955Z,95665.55
2018-06-23T17:38:49.382Z,95660.52
2018-06-23T17:41:18.689Z,95662.20
2018-06-23T17:43:47.976Z,95661.34
2018-06-23T17:46:17.368Z,95655.55
2018-06-23T17:48:46.693Z,95664.23
2018-06-23T17:51:16.121Z,95663.16
2018-06-23T17:53:45.468Z,95659.70
2018-06-23T17:56:14.957Z,95659.73
2018-06-23T17:58:44.345Z,95658.21
2018-06-23T18:01:13.812Z,95657.84
2018-06-23T18:03:43.153Z,95660.56
2018-06-23T18:06:12.496Z,95663.09
2018-06-23T18:08:41.882Z,95658.67
2018-06-23T18:11:11.207Z,95657.42
2018-06-23T18:13:40.575Z,95661.91
2018-06-23T18:16:09.912Z,95660.98
2018-06-23T18:18:39.297Z,95668.25
2018-06-23T18:21:09.642Z,95666.84
2018-06-23T18:23:39.037Z,95663.05
2018-06-23T18:26:08.377Z,95663.91
2018-06-23T18:28:37.666Z,95662.98
2018-06-23T18:31:06.961Z,95657.75
2018-06-23T18:33:36.265Z,95665.38
2018-06-23T18:36:05.558Z,95670.34
2018-06-23T18:38:34.986Z,95668.08
2018-06-23T18:41:04.281Z,95675.77
2018-06-23T18:43:33.637Z,95665.76
2018-06-23T18:46:03.047Z,95669.21
2018-06-23T18:48:32.685Z,95669.64
2018-06-23T18:51:02.045Z,95671.73
2018-06-23T18:53:31.389Z,95672.06
2018-06-23T18:56:00.730Z,95663.50
2018-06-23T18:58:30.034Z,95659.27
2018-06-23T19:00:59.447Z,95662.80
2018-06-23T19:03:28.810Z,95659.55
2018-06-23T19:05:58.252Z,95662.33
2018-06-23T19:08:27.701Z,95657.63
2018-06-23T19:10:56.982Z,95662.96
2018-06-23T19:13:26.332Z,95657.86
2018-06-23T19:15:55.747Z,95656.84
2018-06-23T19:18:25.077Z,95660.52
2018-06-23T19:20:54.396Z,95655.34
2018-06-23T19:23:23.726Z,95652.93
2018-06-23T19:25:53.064Z,95659.91
2018-06-23T19:28:22.440Z,95666.39
2018-06-23T19:30:51.766Z,95666.20
2018-06-23T19:33:21.040Z,95663.58
2018-06-23T19:35:50.401Z,95660.83
2018-06-23T19:38:19.727Z,95666.88
2018-06-23T19:40:49.120Z,95662.11
2018-06-23T19:43:18.498Z,95662.91
2018-06-23T19:45:47.790Z,95666.94
2018-06-23T19:48:17.129Z,95672.98
2018-06-23T19:50:46.414Z,95675.55
2018-06-23T19:53:15.794Z,95674.88
2018-06-23T19:55:45.097Z,95677.33
2018-06-23T19:58:14.632Z,95677.15
2018-06-23T20:00:43.974Z,95680.75
2018-06-23T20:03:13.345Z,95681.14
2018-06-23T20:05:42.697Z,95684.54
2018-06-23T20:08:11.987Z,95684.88
2018-06-23T20:10:41.359Z,95681.33
2018-06-23T20:13:23.042Z,95688.56
2018-06-23T20:15:52.525Z,95691.27
2018-06-23T20:18:22.032Z,95692.53
2018-06-23T20:20:51.460Z,95691.03
2018-06-23T20:23:20.867Z,95697.53
2018-06-23T20:25:50.197Z,95695.84
2018-06-23T20:28:20.356Z,95695.20
2018-06-23T20:30:49.999Z,95701.83
2018-06-23T20:33:19.296Z,95698.50
2018-06-23T20:35:48.657Z,95698.03
2018-06-23T20:38:17.981Z,95701.93
2018-06-23T20:40:47.419Z,95695.72
2018-06-23T20:43:16.730Z,95696.75
2018-06-23T20:45:46.082Z,95698.00
2018-06-23T20:48:15.417Z,95689.63
2018-06-23T20:50:44.698Z,95694.41
2018-06-23T20:53:13.993Z,95690.27
2018-06-23T20:55:43.261Z,95693.97
2018-06-23T20:58:12.635Z,95685.48
2018-06-23T21:00:41.977Z,95690.29
2018-06-23T21:03:12.085Z,95690.61
2018-06-23T21:05:41.350Z,95689.48
2018-06-23T21:08:10.604Z,95691.88
2018-06-23T21:10:43.685Z,95685.61
2018-06-23T21:13:13.174Z,95687.97
2018-06-23T21:15:42.626Z,95688.81
2018-06-23T21:18:11.953Z,95691.41
2018-06-23T21:20:41.285Z,95685.42
2018-06-23T21:23:10.546Z,95683.33
2018-06-23T21:25:39.837Z,95687.23
2018-06-23T21:28:09.239Z,95684.91
2018-06-23T21:30:38.587Z,95690.09
2018-06-23T21:33:07.989Z,95684.91
2018-06-23T21:35:37.258Z,95694.00
2018-06-23T21:38:06.537Z,95692.95
2018-06-23T21:40:35.910Z,95688.54
2018-06-23T21:43:05.232Z,95688.02
2018-06-23T21:45:34.529Z,95684.39
2018-06-23T21:48:03.846Z,95688.25
2018-06-23T21:50:33.197Z,95679.64
2018-06-23T21:53:02.569Z,95683.28
2018-06-23T21:55:31.861Z,95678.58
2018-06-23T21:58:01.197Z,95682.27
2018-06-23T22:00:34.237Z,95672.05
2018-06-23T22:03:06.789Z,95668.12
2018-06-23T22:05:36.174Z,95669.96
2018-06-23T22:08:06.185Z,95673.89
2018-06-23T22:10:36.527Z,95670.77
2018-06-23T22:13:06.155Z,95665.27
2018-06-23T22:15:36.285Z,95665.02
2018-06-23T22:18:05.673Z,95667.31
2018-06-23T22:20:34.994Z,95671.75
2018-06-23T22:23:04.355Z,95665.78
2018-06-23T22:25:33.682Z,95665.75
2018-06-23T22:28:03.012Z,95663.99
2018-06-23T22:30:32.373Z,95668.16
2018-06-23T22:33:01.695Z,95665.47
2018-06-23T22:35:31.022Z,95662.66
2018-06-23T22:38:00.350Z,95658.70
2018-06-23T22:40:29.708Z,95666.54
2018-06-23T22:42:59.064Z,95662.28
2018-06-23T22:45:28.376Z,95660.76
2018-06-23T22:47:57.716Z,95664.50
2018-06-23T22:50:27.000Z,95668.12
2018-06-23T22:52:56.352Z,95663.69
2018-06-23T22:55:25.698Z,95660.56
2018-06-23T22:57:54.992Z,95662.66
2018-06-23T23:00:24.357Z,95663.16
2018-06-23T23:02:53.641Z,95657.70
2018-06-23T23:05:22.936Z,95660.06
2018-06-23T23:07:52.273Z,95652.20
2018-06-23T23:10:22.024Z,95659.27
2018-06-23T23:12:51.462Z,95657.98
2018-06-23T23:15:20.833Z,95657.95
2018-06-23T23:17:50.167Z,95657.14
2018-06-23T23:20:19.446Z,95657.93
2018-06-23T23:22:48.762Z,95655.35
2018-06-23T23:25:18.109Z,95659.77
2018-06-23T23:27:47.435Z,95651.69
2018-06-23T23:30:16.818Z,95652.17
2018-06-23T23:32:46.085Z,95655.35
2018-06-23T23:35:15.360Z,95651.38
2018-06-23T23:37:44.655Z,95647.27
2018-06-23T23:40:13.951Z,95640.46
2018-06-23T23:42:43.238Z,95640.14
2018-06-23T23:45:12.674Z,95646.72
2018-06-23T23:47:41.969Z,95639.94
2018-06-23T23:50:11.253Z,95635.95
2018-06-23T23:52:40.577Z,95632.45
2018-06-23T23:55:09.908Z,95625.29
2018-06-23T23:57:39.216Z,95624.91
